createdAt,value
2023-04-15T00:01:37.254Z,8.93
2023-04-15T00:04:04.713Z,9.38
2023-04-15T00:06:31.380Z,9.75
2023-04-15T00:08:58.019Z,9.13
2023-04-15T00:11:24.576Z,9.85
2023-04-15T00:13:51.219Z,9.77
2023-04-15T00:16:17.736Z,9.60
2023-04-15T00:18:44.274Z,9.40
2023-04-15T00:21:10.746Z,9.25
2023-04-15T00:23:37.197Z,10.05
2023-04-15T00:26:03.637Z,9.23
2023-04-15T00:28:31.018Z,8.95
2023-04-15T00:30:57.689Z,8.95
2023-04-15T00:33:24.471Z,9.07
2023-04-15T00:35:50.971Z,9.75
2023-04-15T00:38:17.768Z,8.60
2023-04-15T00:40:44.263Z,8.98
2023-04-15T00:43:10.854Z,9.40
2023-04-15T00:45:38.351Z,9.18
2023-04-15T00:48:05.636Z,9.05
2023-04-15T00:50:32.830Z,10.20
2023-04-15T00:52:59.296Z,9.30
2023-04-15T00:55:25.889Z,10.00
2023-04-15T00:57:52.675Z,9.25
2023-04-15T01:00:20.192Z,9.80
2023-04-15T01:02:47.198Z,9.88
2023-04-15T01:05:13.923Z,9.48
2023-04-15T01:07:40.383Z,9.65
2023-04-15T01:10:08.152Z,9.68
2023-04-15T01:12:35.216Z,9.38
2023-04-15T01:15:02.253Z,10.50
2023-04-15T01:17:28.799Z,10.45
2023-04-15T01:19:56.634Z,10.50
2023-04-15T01:22:23.859Z,10.38
2023-04-15T01:25:04.741Z,10.23
2023-04-15T01:27:31.403Z,10.60
2023-04-15T01:29:58.406Z,10.32
2023-04-15T01:32:25.104Z,9.50
2023-04-15T01:34:52.082Z,9.88
2023-04-15T01:37:18.569Z,8.75
2023-04-15T01:39:45.531Z,9.02
2023-04-15T01:42:12.341Z,9.23
2023-04-15T01:44:38.861Z,9.38
2023-04-15T01:47:05.638Z,9.98
2023-04-15T01:49:32.594Z,10.02
2023-04-15T01:52:00.747Z,9.70
2023-04-15T01:54:27.578Z,9.98
2023-04-15T01:56:54.042Z,9.68
2023-04-15T01:59:20.911Z,10.02
2023-04-15T02:01:47.416Z,9.50
2023-04-15T02:04:16.641Z,9.75
2023-04-15T02:06:43.799Z,10.20
2023-04-15T02:09:10.569Z,9.43
2023-04-15T02:11:37.526Z,9.70
2023-04-15T02:14:05.691Z,10.10
2023-04-15T02:16:32.822Z,9.80
2023-04-15T02:19:00.141Z,9.73
2023-04-15T02:21:27.293Z,9.43
2023-04-15T02:23:57.107Z,10.60
2023-04-15T02:26:25.044Z,10.00
2023-04-15T02:28:53.587Z,10.18
2023-04-15T02:31:21.224Z,10.07
2023-04-15T02:33:47.718Z,10.10
2023-04-15T02:36:14.550Z,9.43
2023-04-15T02:38:42.920Z,10.43
2023-04-15T02:41:10.430Z,9.07
2023-04-15T02:43:39.871Z,9.85
2023-04-15T02:46:08.232Z,10.15
2023-04-15T02:48:34.752Z,10.10
2023-04-15T02:51:14.492Z,9.88
2023-04-15T02:53:41.538Z,9.57
2023-04-15T02:56:08.426Z,9.93
2023-04-15T02:58:35.940Z,9.25
2023-04-15T03:01:02.597Z,9.65
2023-04-15T03:03:29.238Z,9.75
2023-04-15T03:05:55.801Z,9.30
2023-04-15T03:08:22.578Z,9.23
2023-04-15T03:10:49.406Z,9.13
2023-04-15T03:13:16.545Z,9.50
2023-04-15T03:15:43.854Z,9.02
2023-04-15T03:18:10.805Z,9.23
2023-04-15T03:20:37.270Z,9.40
2023-04-15T03:23:03.924Z,9.77
2023-04-15T03:25:30.535Z,9.10
2023-04-15T03:27:57.141Z,9.50
2023-04-15T03:30:23.683Z,9.55
2023-04-15T03:32:51.051Z,9.48
2023-04-15T03:35:18.591Z,9.80
2023-04-15T03:37:45.125Z,9.43
2023-04-15T03:40:12.038Z,10.02
2023-04-15T03:42:38.557Z,9.55
2023-04-15T03:45:05.682Z,10.43
2023-04-15T03:47:32.183Z,9.98
2023-04-15T03:49:58.662Z,9.93
2023-04-15T03:52:25.572Z,10.18
2023-04-15T03:54:52.312Z,10.57
2023-04-15T03:57:18.757Z,11.45
2023-04-15T03:59:45.294Z,11.75
2023-04-15T04:02:11.814Z,11.57
2023-04-15T04:04:38.386Z,12.20
2023-04-15T04:07:04.874Z,11.55
2023-04-15T04:09:31.606Z,11.35
2023-04-15T04:11:58.084Z,11.07
2023-04-15T04:14:29.450Z,10.35
2023-04-15T04:16:56.725Z,10.35
2023-04-15T04:19:23.240Z,10.93
2023-04-15T04:21:49.702Z,10.27
2023-04-15T04:24:16.402Z,10.38
2023-04-15T04:26:42.904Z,10.13
2023-04-15T04:29:09.408Z,10.98
2023-04-15T04:31:36.442Z,9.90
2023-04-15T04:34:02.979Z,10.23
2023-04-15T04:36:29.443Z,9.27
2023-04-15T04:38:56.207Z,8.95
2023-04-15T04:41:22.702Z,9.13
2023-04-15T04:43:49.198Z,9.30
2023-04-15T04:46:15.990Z,9.05
2023-04-15T04:48:42.479Z,9.57
2023-04-15T04:51:09.433Z,7.88
2023-04-15T04:53:37.672Z,8.82
2023-04-15T04:56:04.539Z,8.57
2023-04-15T04:58:31.058Z,8.35
2023-04-15T05:00:58.416Z,7.88
2023-04-15T05:03:25.159Z,5.70
2023-04-15T05:05:51.812Z,6.78
2023-04-15T05:08:18.252Z,5.72
2023-04-15T05:10:44.754Z,5.40
2023-04-15T05:13:11.481Z,5.65
2023-04-15T05:15:39.860Z,4.97
2023-04-15T05:18:06.533Z,5.00
2023-04-15T05:20:33.038Z,4.72
2023-04-15T05:22:59.514Z,5.32
2023-04-15T05:25:26.089Z,5.15
2023-04-15T05:27:52.527Z,5.72
2023-04-15T05:30:22.177Z,5.57
2023-04-15T05:32:48.660Z,5.30
2023-04-15T05:35:15.194Z,5.68
2023-04-15T05:37:42.134Z,5.07
2023-04-15T05:40:10.504Z,5.10
2023-04-15T05:42:37.199Z,5.70
2023-04-15T05:45:05.549Z,5.38
2023-04-15T05:47:32.276Z,5.75
2023-04-15T05:49:59.155Z,5.50
2023-04-15T05:52:25.673Z,5.60
2023-04-15T05:54:52.120Z,5.88
2023-04-15T05:57:18.606Z,5.68
2023-04-15T05:59:45.072Z,5.90
2023-04-15T06:02:11.758Z,6.25
2023-04-15T06:04:39.444Z,6.25
2023-04-15T06:07:06.193Z,6.57
2023-04-15T06:09:32.624Z,6.20
2023-04-15T06:11:59.444Z,6.45
2023-04-15T06:14:26.252Z,5.30
2023-04-15T06:16:52.836Z,6.20
2023-04-15T06:19:19.434Z,6.55
2023-04-15T06:21:46.352Z,6.38
2023-04-15T06:24:12.821Z,6.18
2023-04-15T06:26:39.269Z,6.30
2023-04-15T06:29:05.812Z,6.70
2023-04-15T06:31:32.381Z,5.70
2023-04-15T06:33:58.838Z,6.07
2023-04-15T06:36:25.342Z,6.15
2023-04-15T06:38:51.852Z,5.60
2023-04-15T06:41:18.356Z,5.97
2023-04-15T06:43:44.845Z,5.85
2023-04-15T06:46:11.567Z,5.40
2023-04-15T06:48:38.069Z,5.22
2023-04-15T06:51:04.603Z,5.43
2023-04-15T06:53:31.107Z,5.03
2023-04-15T06:55:57.581Z,5.15
2023-04-15T06:58:24.047Z,4.38
2023-04-15T07:00:51.086Z,4.38
2023-04-15T07:03:17.805Z,4.20
2023-04-15T07:05:44.810Z,4.30
2023-04-15T07:08:11.249Z,4.40
2023-04-15T07:10:38.155Z,4.45
2023-04-15T07:13:04.676Z,4.70
2023-04-15T07:15:31.149Z,4.72
2023-04-15T07:17:57.660Z,4.13
2023-04-15T07:20:24.151Z,4.60
2023-04-15T07:22:50.625Z,4.53
2023-04-15T07:25:17.711Z,4.68
2023-04-15T07:27:44.201Z,4.78
2023-04-15T07:30:11.049Z,4.70
2023-04-15T07:32:37.732Z,5.35
2023-04-15T07:35:04.785Z,5.30
2023-04-15T07:37:31.362Z,4.97
2023-04-15T07:39:58.058Z,5.30
2023-04-15T07:42:24.586Z,5.28
2023-04-15T07:44:52.010Z,5.47
2023-04-15T07:47:18.590Z,5.50
2023-04-15T07:49:45.194Z,5.20
2023-04-15T07:52:11.680Z,5.43
2023-04-15T07:54:38.118Z,5.35
2023-04-15T07:57:04.690Z,5.57
2023-04-15T07:59:33.360Z,6.25
2023-04-15T08:01:59.867Z,6.03
2023-04-15T08:04:26.396Z,5.97
2023-04-15T08:06:53.423Z,6.35
2023-04-15T08:09:19.975Z,6.53
2023-04-15T08:11:48.807Z,6.20
2023-04-15T08:14:15.476Z,5.80
2023-04-15T08:16:42.412Z,6.22
2023-04-15T08:19:09.313Z,6.10
2023-04-15T08:21:36.527Z,6.30
2023-04-15T08:24:03.366Z,6.00
2023-04-15T08:26:29.879Z,5.40
2023-04-15T08:28:56.468Z,5.55
2023-04-15T08:31:22.998Z,5.40
2023-04-15T08:33:51.992Z,6.05
2023-04-15T08:36:18.951Z,6.25
2023-04-15T08:38:45.633Z,6.53
2023-04-15T08:41:20.236Z,5.63
2023-04-15T08:43:57.488Z,5.97
2023-04-15T08:46:24.266Z,6.68
2023-04-15T08:48:50.887Z,6.20
2023-04-15T08:51:18.010Z,6.00
2023-04-15T08:53:46.508Z,6.70
2023-04-15T08:56:14.434Z,6.60
2023-04-15T08:58:41.574Z,7.70
2023-04-15T09:01:08.386Z,8.43
2023-04-15T09:03:35.343Z,8.18
2023-04-15T09:06:04.613Z,8.43
2023-04-15T09:08:31.581Z,8.70
2023-04-15T09:10:58.040Z,10.00
2023-04-15T09:13:24.516Z,12.55
2023-04-15T09:15:51.101Z,17.13
2023-04-15T09:18:29.628Z,14.95
2023-04-15T09:20:56.994Z,16.95
2023-04-15T09:23:23.604Z,14.43
2023-04-15T09:25:50.508Z,16.75
2023-04-15T09:28:24.206Z,25.60
2023-04-15T09:30:58.732Z,33.33
2023-04-15T09:33:29.012Z,27.10
2023-04-15T09:36:03.581Z,17.35
2023-04-15T09:38:30.077Z,14.98
2023-04-15T09:40:57.153Z,17.35
2023-04-15T09:43:23.946Z,16.48
2023-04-15T09:45:53.023Z,21.05
2023-04-15T09:48:21.537Z,20.35
2023-04-15T09:50:49.415Z,23.40
2023-04-15T09:53:20.325Z,17.95
2023-04-15T09:55:55.092Z,22.13
2023-04-15T09:58:23.534Z,15.40
2023-04-15T10:00:51.636Z,17.52
2023-04-15T10:03:21.667Z,19.05
2023-04-15T10:05:50.724Z,16.17
2023-04-15T10:08:25.172Z,16.98
2023-04-15T10:10:52.436Z,19.13
2023-04-15T10:13:22.372Z,19.35
2023-04-15T10:15:57.674Z,19.48
2023-04-15T10:18:26.987Z,24.55
2023-04-15T10:20:54.127Z,21.48
2023-04-15T10:23:22.346Z,20.67
2023-04-15T10:25:54.377Z,20.58
2023-04-15T10:28:22.883Z,25.15
2023-04-15T10:30:49.990Z,26.23
2023-04-15T10:33:23.992Z,28.55
2023-04-15T10:38:34.031Z,26.50
2023-04-15T10:41:21.183Z,25.20
2023-04-15T10:43:52.766Z,25.88
2023-04-15T10:46:23.906Z,24.23
2023-04-15T10:48:52.362Z,23.63
2023-04-15T10:51:29.928Z,24.73
2023-04-15T10:53:58.110Z,24.38
2023-04-15T10:56:24.578Z,23.00
2023-04-15T10:58:51.155Z,29.85
2023-04-15T11:01:20.045Z,27.13
2023-04-15T11:03:46.901Z,27.05
2023-04-15T11:06:13.560Z,32.72
2023-04-15T11:08:59.554Z,23.38
2023-04-15T11:12:10.479Z,21.98
2023-04-15T11:14:41.657Z,23.67
2023-04-15T11:17:08.207Z,22.48
2023-04-15T11:19:38.989Z,22.98
2023-04-15T11:22:12.198Z,20.60
2023-04-15T11:24:48.408Z,14.50
2023-04-15T11:27:24.104Z,19.70
2023-04-15T11:29:50.703Z,21.00
2023-04-15T11:32:17.275Z,21.63
2023-04-15T11:34:46.117Z,20.17
2023-04-15T11:37:12.981Z,20.70
2023-04-15T11:39:39.432Z,20.67
2023-04-15T11:42:16.978Z,19.92
2023-04-15T11:44:43.416Z,19.50
2023-04-15T11:47:23.641Z,20.42
2023-04-15T11:49:50.106Z,19.92
2023-04-15T11:52:16.580Z,21.10
2023-04-15T11:54:43.044Z,19.83
2023-04-15T11:57:09.498Z,20.45
2023-04-15T11:59:45.189Z,20.10
2023-04-15T12:02:13.542Z,20.02
2023-04-15T12:04:40.499Z,19.55
2023-04-15T12:07:07.558Z,19.52
2023-04-15T12:09:37.980Z,19.45
2023-04-15T12:12:04.422Z,18.80
2023-04-15T12:14:34.296Z,21.30
2023-04-15T12:17:03.356Z,21.05
2023-04-15T12:19:34.740Z,20.13
2023-04-15T12:22:04.270Z,18.95
2023-04-15T12:24:35.838Z,19.38
2023-04-15T12:27:07.090Z,18.85
2023-04-15T12:29:34.917Z,18.20
2023-04-15T12:32:07.274Z,19.75
2023-04-15T12:34:35.821Z,17.98
2023-04-15T12:37:04.068Z,18.02
2023-04-15T12:39:32.595Z,18.40
2023-04-15T12:42:00.344Z,16.98
2023-04-15T12:44:28.035Z,17.00
2023-04-15T12:46:54.908Z,16.65
2023-04-15T12:49:22.403Z,16.42
2023-04-15T12:51:50.298Z,16.83
2023-04-15T12:54:17.663Z,16.90
2023-04-15T12:56:46.060Z,17.45
2023-04-15T12:59:13.051Z,17.08
2023-04-15T13:01:40.117Z,16.90
2023-04-15T13:04:07.389Z,17.25
2023-04-15T13:06:34.497Z,16.67
2023-04-15T13:09:02.340Z,16.38
2023-04-15T13:11:33.783Z,17.70
2023-04-15T13:14:01.917Z,17.90
2023-04-15T13:16:28.718Z,17.05
2023-04-15T13:18:55.425Z,14.02
2023-04-15T13:21:21.918Z,14.15
2023-04-15T13:23:50.356Z,13.75
2023-04-15T13:26:17.786Z,12.93
2023-04-15T13:28:44.367Z,12.43
2023-04-15T13:31:10.881Z,12.10
2023-04-15T13:33:37.591Z,13.13
2023-04-15T13:36:04.116Z,12.38
2023-04-15T13:38:30.586Z,12.35
2023-04-15T13:40:57.047Z,13.23
2023-04-15T13:43:23.530Z,14.68
2023-04-15T13:45:50.099Z,14.75
2023-04-15T13:48:17.035Z,14.57
2023-04-15T13:50:45.369Z,16.10
2023-04-15T13:53:12.581Z,17.38
2023-04-15T13:55:42.713Z,18.30
2023-04-15T13:58:09.764Z,20.33
2023-04-15T14:00:36.303Z,19.05
2023-04-15T14:03:02.932Z,19.48
2023-04-15T14:05:29.602Z,19.88
2023-04-15T14:07:56.063Z,20.30
2023-04-15T14:10:22.548Z,20.52
2023-04-15T14:12:48.995Z,21.92
2023-04-15T14:15:15.670Z,22.08
2023-04-15T14:17:42.530Z,20.75
2023-04-15T14:20:09.667Z,21.33
2023-04-15T14:22:36.217Z,23.38
2023-04-15T14:25:02.741Z,23.20
2023-04-15T14:27:29.246Z,22.85
2023-04-15T14:29:55.715Z,21.30
2023-04-15T14:32:22.209Z,19.40
2023-04-15T14:34:48.666Z,19.98
2023-04-15T14:37:15.150Z,19.00
2023-04-15T14:39:41.599Z,18.35
2023-04-15T14:42:08.087Z,19.73
2023-04-15T14:44:34.688Z,19.67
2023-04-15T14:47:04.009Z,19.88
2023-04-15T14:49:30.633Z,19.58
2023-04-15T14:51:57.078Z,17.80
2023-04-15T14:54:23.568Z,18.63
2023-04-15T14:56:50.113Z,18.58
2023-04-15T14:59:16.666Z,18.45
2023-04-15T15:01:43.197Z,21.17
2023-04-15T15:04:10.876Z,20.13
2023-04-15T15:06:37.427Z,19.23
2023-04-15T15:09:04.702Z,20.23
2023-04-15T15:11:31.755Z,19.08
2023-04-15T15:13:58.471Z,19.25
2023-04-15T15:16:28.712Z,19.52
2023-04-15T15:18:55.432Z,19.10
2023-04-15T15:21:21.912Z,20.00
2023-04-15T15:23:48.508Z,19.45
2023-04-15T15:26:15.348Z,18.38
2023-04-15T15:28:42.231Z,18.10
2023-04-15T15:31:08.945Z,17.55
2023-04-15T15:33:35.545Z,17.00
2023-04-15T15:36:03.498Z,17.65
2023-04-15T15:38:29.965Z,16.55
2023-04-15T15:40:56.424Z,16.02
2023-04-15T15:43:23.242Z,18.27
2023-04-15T15:45:51.784Z,16.77
2023-04-15T15:48:18.641Z,17.08
2023-04-15T15:50:45.835Z,17.65
2023-04-15T15:53:17.790Z,18.20
2023-04-15T15:55:44.240Z,18.20
2023-04-15T15:58:10.966Z,18.40
2023-04-15T16:00:37.491Z,17.13
2023-04-15T16:03:07.361Z,16.83
2023-04-15T16:05:35.369Z,15.63
2023-04-15T16:08:02.028Z,15.07
2023-04-15T16:10:28.885Z,15.30
2023-04-15T16:12:55.667Z,14.88
2023-04-15T16:15:23.892Z,16.35
2023-04-15T16:17:50.497Z,16.23
2023-04-15T16:20:17.080Z,17.20
2023-04-15T16:22:43.607Z,16.85
2023-04-15T16:25:10.527Z,18.83
2023-04-15T16:27:54.060Z,17.55
2023-04-15T16:30:23.469Z,17.63
2023-04-15T16:32:49.924Z,17.75
2023-04-15T16:35:16.841Z,18.40
2023-04-15T16:37:43.342Z,18.92
2023-04-15T16:40:10.211Z,17.90
2023-04-15T16:42:36.953Z,17.92
2023-04-15T16:45:03.573Z,19.40
2023-04-15T16:47:30.218Z,19.08
2023-04-15T16:49:56.725Z,18.67
2023-04-15T16:52:23.184Z,18.80
2023-04-15T16:54:49.730Z,19.88
2023-04-15T16:57:16.236Z,19.90
2023-04-15T16:59:42.704Z,20.35
2023-04-15T17:02:11.680Z,21.23
2023-04-15T17:04:38.387Z,20.48
2023-04-15T17:07:06.534Z,20.98
2023-04-15T17:09:33.020Z,22.25
2023-04-15T17:11:59.541Z,24.25
2023-04-15T17:14:27.603Z,22.08
2023-04-15T17:16:54.220Z,24.45
2023-04-15T17:19:20.675Z,23.95
2023-04-15T17:21:47.160Z,23.25
2023-04-15T17:24:13.731Z,24.17
2023-04-15T17:26:40.243Z,24.88
2023-04-15T17:29:07.012Z,24.38
2023-04-15T17:31:33.717Z,24.33
2023-04-15T17:34:05.649Z,25.85
2023-04-15T17:36:36.594Z,31.00
2023-04-15T17:39:03.457Z,27.30
2023-04-15T17:41:30.056Z,26.60
2023-04-15T17:43:56.553Z,25.73
2023-04-15T17:46:23.034Z,29.00
2023-04-15T17:48:49.577Z,25.65
2023-04-15T17:51:17.021Z,27.65
2023-04-15T17:53:43.528Z,24.85
2023-04-15T17:56:10.055Z,25.40
2023-04-15T17:58:36.540Z,23.13
2023-04-15T18:01:03.178Z,24.58
2023-04-15T18:03:29.955Z,23.67
2023-04-15T18:05:56.674Z,22.55
2023-04-15T18:08:23.388Z,24.55
2023-04-15T18:10:49.887Z,23.08
2023-04-15T18:13:16.593Z,22.17
2023-04-15T18:15:44.604Z,23.92
2023-04-15T18:18:12.796Z,22.77
2023-04-15T18:20:39.332Z,21.92
2023-04-15T18:23:05.873Z,23.27
2023-04-15T18:25:33.913Z,21.95
2023-04-15T18:28:00.548Z,22.05
2023-04-15T18:30:27.310Z,23.08
2023-04-15T18:32:53.842Z,21.08
2023-04-15T18:35:20.755Z,22.35
2023-04-15T18:37:47.291Z,23.73
2023-04-15T18:40:16.296Z,22.40
2023-04-15T18:42:42.933Z,22.90
2023-04-15T18:45:09.530Z,23.90
2023-04-15T18:47:36.127Z,24.40
2023-04-15T18:50:02.671Z,28.40
2023-04-15T18:52:29.825Z,27.52
2023-04-15T18:54:56.335Z,24.33
2023-04-15T18:57:25.877Z,26.17
2023-04-15T19:00:02.137Z,25.88
2023-04-15T19:02:28.859Z,27.17
2023-04-15T19:04:55.594Z,26.80
2023-04-15T19:07:23.071Z,24.23
2023-04-15T19:09:49.659Z,25.20
2023-04-15T19:12:16.196Z,25.60
2023-04-15T19:14:42.769Z,23.75
2023-04-15T19:17:09.629Z,24.60
2023-04-15T19:19:36.189Z,24.42
2023-04-15T19:22:03.513Z,29.13
2023-04-15T19:24:33.474Z,26.58
2023-04-15T19:27:00.021Z,22.65
2023-04-15T19:29:28.553Z,24.58
2023-04-15T19:31:55.279Z,24.50
2023-04-15T19:34:21.923Z,23.20
2023-04-15T19:36:48.401Z,23.88
2023-04-15T19:39:14.963Z,26.05
2023-04-15T19:41:41.427Z,25.33
2023-04-15T19:44:07.908Z,26.70
2023-04-15T19:46:34.453Z,23.65
2023-04-15T19:49:01.336Z,27.52
2023-04-15T19:51:28.641Z,35.42
2023-04-15T19:53:56.741Z,25.05
2023-04-15T19:56:24.088Z,28.48
2023-04-15T19:58:52.914Z,26.25
2023-04-15T20:01:20.356Z,28.77
2023-04-15T20:03:47.239Z,29.08
2023-04-15T20:06:14.896Z,28.88
2023-04-15T20:08:41.658Z,29.70
2023-04-15T20:11:12.053Z,28.08
2023-04-15T20:13:41.649Z,27.70
2023-04-15T20:16:08.206Z,28.35
2023-04-15T20:18:34.753Z,29.70
2023-04-15T20:21:01.551Z,29.48
2023-04-15T20:23:28.060Z,26.08
2023-04-15T20:25:54.707Z,28.08
2023-04-15T20:28:23.268Z,25.80
2023-04-15T20:30:49.864Z,28.02
2023-04-15T20:33:16.365Z,26.65
2023-04-15T20:35:42.858Z,26.65
2023-04-15T20:38:09.384Z,27.67
2023-04-15T20:40:36.376Z,25.67
2023-04-15T20:43:02.847Z,25.27
2023-04-15T20:45:29.286Z,24.63
2023-04-15T20:47:56.217Z,25.27
2023-04-15T20:50:22.804Z,22.35
2023-04-15T20:52:49.269Z,23.38
2023-04-15T20:55:15.777Z,23.98
2023-04-15T20:57:42.283Z,22.70
2023-04-15T21:00:12.281Z,22.17
2023-04-15T21:02:38.854Z,23.10
2023-04-15T21:05:05.793Z,22.73
2023-04-15T21:07:32.340Z,23.38
2023-04-15T21:09:58.893Z,20.90
2023-04-15T21:12:25.486Z,22.08
2023-04-15T21:14:52.327Z,22.58
2023-04-15T21:17:18.851Z,23.05
2023-04-15T21:19:45.346Z,21.88
2023-04-15T21:22:11.914Z,22.77
2023-04-15T21:24:38.447Z,22.35
2023-04-15T21:27:04.921Z,22.05
2023-04-15T21:29:31.414Z,22.13
2023-04-15T21:31:58.031Z,23.52
2023-04-15T21:34:24.565Z,21.08
2023-04-15T21:36:51.044Z,20.50
2023-04-15T21:39:17.510Z,20.92
2023-04-15T21:41:43.980Z,20.20
2023-04-15T21:44:12.112Z,19.65
2023-04-15T21:46:39.672Z,22.15
2023-04-15T21:49:07.084Z,21.35
2023-04-15T21:51:33.909Z,21.27
2023-04-15T21:54:00.503Z,20.63
2023-04-15T21:56:27.014Z,22.42
2023-04-15T21:58:56.932Z,21.27
2023-04-15T22:01:23.820Z,21.42
2023-04-15T22:03:50.638Z,20.98
2023-04-15T22:06:17.210Z,22.35
2023-04-15T22:08:55.128Z,21.38
2023-04-15T22:11:27.476Z,20.42
2023-04-15T22:13:54.663Z,21.63
2023-04-15T22:16:21.483Z,20.88
2023-04-15T22:18:48.253Z,20.25
2023-04-15T22:21:14.864Z,20.27
2023-04-15T22:23:41.406Z,20.33
2023-04-15T22:26:07.948Z,20.52
2023-04-15T22:28:34.436Z,20.38
2023-04-15T22:31:01.068Z,19.73
2023-04-15T22:33:27.679Z,20.88
2023-04-15T22:35:54.132Z,20.27
2023-04-15T22:38:20.706Z,20.65
2023-04-15T22:40:47.314Z,18.85
2023-04-15T22:43:13.758Z,20.17
2023-04-15T22:45:40.247Z,19.98
2023-04-15T22:48:06.964Z,21.02
2023-04-15T22:50:33.514Z,21.98
2023-04-15T22:52:59.962Z,20.50
2023-04-15T22:55:26.426Z,21.17
2023-04-15T22:57:52.907Z,21.75
2023-04-15T23:00:19.375Z,21.02
2023-04-15T23:02:46.106Z,21.08
2023-04-15T23:05:13.470Z,19.75
2023-04-15T23:07:40.145Z,20.73
2023-04-15T23:10:07.957Z,20.77
2023-04-15T23:12:34.563Z,20.65
2023-04-15T23:15:01.084Z,20.02
2023-04-15T23:17:27.701Z,21.55
2023-04-15T23:19:54.199Z,21.98
2023-04-15T23:22:20.695Z,22.17
2023-04-15T23:24:47.177Z,22.50
2023-04-15T23:27:13.637Z,22.90
2023-04-15T23:29:40.126Z,22.85
2023-04-15T23:32:06.717Z,24.20
2023-04-15T23:34:33.180Z,24.60
2023-04-15T23:36:59.622Z,24.20
2023-04-15T23:39:26.454Z,25.63
2023-04-15T23:41:53.178Z,24.10
2023-04-15T23:44:20.305Z,25.30
2023-04-15T23:46:46.952Z,25.75
2023-04-15T23:49:13.547Z,25.73
2023-04-15T23:51:40.011Z,24.65
2023-04-15T23:54:06.467Z,25.30
2023-04-15T23:56:32.916Z,24.42
2023-04-15T23:58:59.372Z,25.70
